• Join FlightAware (Why Join?)
  • Login
  • US Flag 
Trick or treat! (Boo!!) 
05:30AM EDT


 

Airport Tracker/Info


-or-


 

Live Flight TrackerFlight Track Log ✈ N21EK ✈ 21-Apr-2013 ✈ KCPC - KBCT

Flight Track Log - Related Links

Times and Time Zones

All times are in EDT time to prevent confusion due to time zone crossing. See the N21EK flight status page for this flight to view local times or setup timezone preferences in your user account.

Time Position Orientation Groundspeed Altitude Reporting Facility
EDT Latitude Longitude Course Direction KTS MPH feet Rate Location/Type
02:35PM 34.1594 -78.7769 220° Southwest 171 197 10,000  Level Jacksonville Center
02:36PM 34.1131 -78.8269 222° Southwest 200 230 11,200 1,860 Climbing Jacksonville Center
02:37PM 34.0706 -78.8689 219° Southwest 211 243 13,800 2,100 Climbing Jacksonville Center
02:38PM 34.0322 -78.9083 220° Southwest 198 228 15,500 1,680 Climbing Jacksonville Center
02:39PM 33.9939 -78.9478 220° Southwest 198 228 17,200 1,440 Climbing Jacksonville Center
02:40PM 33.9304 -79.0363 220° Southwest  Level FlightAware Approximate
02:40PM 33.9533 -78.9869 219° Southwest 198 228 18,400  Level Jacksonville Center
02:41PM 33.9108 -79.0289 219° Southwest 198 228 19,800 1,500 Climbing Jacksonville Center
02:42PM 33.8722 -79.0681 220° Southwest 198 228 21,400 1,560 Climbing Jacksonville Center
02:43PM 33.8319 -79.1100 221° Southwest 198 228 23,000 1,500 Climbing Jacksonville Center
02:44PM 33.7911 -79.1467 217° Southwest 198 228 24,500 1,440 Climbing Jacksonville Center
02:45PM 33.7508 -79.1883 221° Southwest 198 228 25,900 1,320 Climbing Jacksonville Center
02:46PM 33.7103 -79.2300 221° Southwest 198 228 27,200 1,380 Climbing Jacksonville Center
02:47PM 33.6697 -79.2717 221° Southwest 193 222 28,700 1,260 Climbing Jacksonville Center
02:48PM 33.6269 -79.3133 219° Southwest 193 222 29,800 600 Climbing Jacksonville Center
02:49PM 33.5803 -79.3600 220° Southwest 205 236 30,000 60 Climbing Jacksonville Center
02:50PM 33.5275 -79.4144 221° Southwest 232 267 30,000 60 Level Jacksonville Center
02:51PM 33.4708 -79.4714 220° Southwest 253 291 30,200 900 Climbing Jacksonville Center
02:52PM 33.4158 -79.5208 217° Southwest 263 303 31,900 900 Climbing Jacksonville Center
02:53PM 33.3650 -79.5750 222° Southwest 258 297 32,000  Climbing Jacksonville Center
02:54PM 33.3081 -79.6317 220° Southwest 258 297 32,000  Level Jacksonville Center
02:55PM 33.2469 -79.6911 219° Southwest 270 311 32,000  Level Jacksonville Center
02:56PM 33.1881 -79.7528 221° Southwest 276 318 32,000  Level Jacksonville Center
02:57PM 33.1225 -79.8097 216° Southwest 286 329 32,000 300 Level Jacksonville Center
02:58PM 33.0617 -79.8736 221° Southwest 291 335 32,600 1,260 Climbing Jacksonville Center
02:59PM 33.0086 -79.9250 219° Southwest 278 320 34,600 1,680 Climbing Jacksonville Center
03:00PM 32.9614 -79.9686 218° Southwest 253 291 36,000 660 Climbing Jacksonville Center
03:01PM 32.9106 -80.0197 220° Southwest 241 277 36,000  Level Jacksonville Center
03:02PM 32.8469 -80.0714 214° Southwest 252 290 36,000  Level Jacksonville Center
03:03PM 32.7936 -80.1100 211° Southwest 267 307 36,000 420 Level Jacksonville Center
03:04PM 32.7217 -80.1642 212° Southwest 278 320 36,900 1,200 Climbing Jacksonville Center
03:05PM 32.6619 -80.2078 212° Southwest 278 320 38,500 1,260 Climbing Jacksonville Center
03:06PM 32.6108 -80.2489 214° Southwest 254 292 39,500 660 Climbing Jacksonville Center
03:07PM 32.5572 -80.2850 210° Southwest 232 267 39,900 240 Climbing Jacksonville Center
03:08PM 32.5058 -80.3258 214° Southwest 227 261 40,000  Climbing Jacksonville Center
03:09PM 32.4483 -80.3667 211° Southwest 232 267 40,000  Level Jacksonville Center
03:10PM 32.3906 -80.4078 211° Southwest 242 278 40,000  Level Jacksonville Center
03:11PM 32.3289 -80.4536 212° Southwest 253 291 40,000  Level Jacksonville Center
03:12PM 32.2650 -80.5022 213° Southwest 258 297 40,000  Level Jacksonville Center
03:13PM 32.1992 -80.5481 211° Southwest 270 311 40,000  Level Jacksonville Center
03:14PM 32.1394 -80.5936 213° Southwest 275 316 40,000  Level Jacksonville Center
03:15PM 32.0672 -80.6469 212° Southwest 275 316 40,000  Level Jacksonville Center
03:16PM 32.0014 -80.6928 211° Southwest 275 316 40,000  Level Jacksonville Center
03:17PM 31.9436 -80.7356 212° Southwest 275 316 40,000  Level Jacksonville Center
03:18PM 31.8714 -80.7864 211° Southwest 275 316 40,000  Level Jacksonville Center
03:19PM 31.8053 -80.8317 210° Southwest 275 316 40,000  Level Jacksonville Center
03:20PM 31.7475 -80.8744 212° Southwest 281 323 40,000  Level Jacksonville Center
03:21PM 31.6600 -80.8839 185° South 290 334 40,000  Level Jacksonville Center
03:22PM 31.5847 -80.8806 178° South 304 350 40,000  Level Jacksonville Center
03:23PM 31.4906 -80.8728 176° South 311 358 40,000  Level Jacksonville Center
03:24PM 31.4050 -80.8650 176° South 311 358 40,000  Level Jacksonville Center
03:25PM 31.3172 -80.8644 180° South 311 358 40,000  Level Jacksonville Center
03:26PM 31.2294 -80.8542 174° South 317 365 40,000  Level Jacksonville Center
03:27PM 31.1436 -80.8489 177° South 312 359 40,000  Level Jacksonville Center
03:28PM 31.0558 -80.8411 176° South 312 359 40,000  Level Jacksonville Center
03:29PM 30.9661 -80.8356 177° South 317 365 40,000  Level Jacksonville Center
03:30PM 30.8761 -80.8278 176° South 317 365 40,000  Level Jacksonville Center
03:31PM 30.7864 -80.8225 177° South 322 371 40,000  Level Jacksonville Center
03:32PM 30.6944 -80.8175 177° South 327 376 40,000  Level Jacksonville Center
03:33PM 30.6022 -80.8097 176° South 327 376 40,000  Level Jacksonville Center
03:34PM 30.5103 -80.8022 176° South 328 377 40,000  Level Jacksonville Center
03:35PM 30.4206 -80.7969 177° South 334 384 40,000  Level Jacksonville Center
03:36PM 30.3264 -80.7892 176° South 329 379 40,000  Level Jacksonville Center
03:37PM 30.2303 -80.7867 179° South 329 379 40,000  Level Jacksonville Center
03:38PM 30.1406 -80.7789 176° South 329 379 40,000  Level Jacksonville Center
03:39PM 30.0464 -80.7689 175° South 329 379 40,000  Level Jacksonville Center
03:40PM 29.9481 -80.7639 177° South 336 387 40,000  Level Jacksonville Center
03:41PM 29.8583 -80.7586 177° South 336 387 40,000  Level Jacksonville Center
03:42PM 29.7622 -80.7514 176° South 336 387 40,000  Level Jacksonville Center
03:43PM 29.6681 -80.7461 177° South 336 387 40,000 -180 Level Jacksonville Center
03:44PM 29.5761 -80.7411 177° South 336 387 39,700 -600 Descending Jacksonville Center
03:45PM 29.4781 -80.7336 176° South 342 394 38,800 -1,020 Descending Jacksonville Center
03:47PM 29.3500 -80.7294 178° South 350 403 37,400 -1,080 Descending Miami Center
03:48PM 29.2522 -80.7189 175° South 350 403 36,300 -720 Descending Miami Center
03:49PM 29.1564 -80.7108 176° South 350 403 36,000 -180 Descending Miami Center
03:50PM 29.0628 -80.7050 177° South 345 397 36,000  Level Miami Center
03:51PM 28.9650 -80.6992 177° South 345 397 36,000  Level Miami Center
03:52PM 28.8781 -80.6750 166° South 350 403 36,000  Level Miami Center
03:53PM 28.7708 -80.6192 155° Southeast 371 427 36,000  Level Miami Center
03:54PM 28.6742 -80.5686 155° Southeast 385 443 36,000  Level Miami Center
03:55PM 28.5756 -80.5133 154° Southeast 385 443 36,000  Level Miami Center
03:56PM 28.4847 -80.4678 156° South 395 455 36,000 -1,200 Level Miami Center
03:57PM 28.3758 -80.4078 154° Southeast 395 455 33,600 -2,880 Descending Miami Center
03:58PM 28.2789 -80.3597 156° South 395 455 30,300 -3,420 Descending Miami Center
03:59PM 28.1819 -80.3097 156° South 389 448 26,800 -3,600 Descending Miami Center
04:00PM 28.1058 -80.2581 149° Southeast 368 423 23,200 -2,700 Descending Miami Center
04:01PM 28.0217 -80.2014 149° Southeast 355 409 21,500 -1,860 Descending Miami Center
04:02PM 27.9114 -80.1864 173° South 350 403 19,500 -1,920 Descending Miami Center
04:03PM 27.8092 -80.1811 177° South 368 423 17,700 -1,860 Descending Miami Center
04:04PM 27.7072 -80.1711 175° South 368 423 15,800 -1,380 Descending Miami Center
04:05PM 27.6239 -80.1639 176° South 353 406 15,000 -1,200 Descending Miami Center
04:06PM 27.5281 -80.1567 176° South 343 395 13,400 -1,860 Descending Miami Center
04:07PM 27.4217 -80.1489 176° South 348 400 11,300 -1,740 Descending Miami Center
04:08PM 27.3278 -80.1414 176° South 348 400 10,000 -660 Descending Miami Center
04:09PM 27.2467 -80.1322 174° South 323 372 10,000 -600 Level Miami Center
04:10PM 27.1717 -80.1206 172° South 302 348 8,800 -1,440 Descending Miami Center
04:11PM 27.0967 -80.1117 174° South 287 330 7,200 -1,680 Descending Miami Center
04:12PM 27.0197 -80.1000 172° South 264 304 5,500 -1,140 Descending Miami Center
04:13PM 26.9533 -80.0889 172° South 258 297 5,000 -300 Descending Miami Center
04:14PM 26.8844 -80.0822 175° South 258 297 5,000  Level Miami Center
04:15PM 26.8261 -80.0808 179° South 250 288 5,000  Level Miami Center
04:16PM 26.7464 -80.0947 189° South 262 302 5,000 -600 Level Miami Center
04:18PM 26.6128 -80.1167 180° South  Level FlightAware Approximate
04:18PM 26.6058 -80.1211 180° South 194 223 3,100  Level Miami Center
04:19PM 26.5575 -80.1336 193° South 183 211 2,100 -840 Descending Miami Center
04:20PM 26.5092 -80.1417 188° South 175 201 1,500 -300 Descending Miami Center
04:21PM 26.4614 -80.1381 176° South 182 209 1,500 -60 Level Miami Center
04:22PM 26.4153 -80.1461 189° South 150 173 1,400 -300 Descending Miami Center
04:23PM 26.3817 -80.1475 182° South 118 136 1,000 -540 Descending Miami Center
04:24PM 26.3633 -80.1261 134° Southeast 105 121 400 -600 Descending Miami Center
04:26PM 26.3667 -80.1000 42° Northeast  Level FlightAware Approximate
04:33PM 26.3785 -80.1077 42° Northeast  Level Estimated